Time;durP1;ratioP1;P1;durP2;ratioP2;P2;SDS_P1;SDS_P2;PMS_P1;PMS_P2;Temp;Humidity;BMP_temperature;BMP_pressure;BME280_temperature;BME280_humidity;BME280_pressure;Samples;Min_cycle;Max_cycle;Signal;HPM_P1;HPM_P2
2022/01/16 00:04:13;;;;;;;54.83;28.35;;;;;;;-0.56;95.72;100862.94;5016754;28;20113;-89
2022/01/16 00:06:53;;;;;;;48.67;26.75;;;;;;;-0.62;95.40;100856.16;4999702;28;20089;-88
2022/01/16 00:12:22;;;;;;;56.20;26.80;;;;;;;-0.69;95.31;100869.13;4984346;28;20504;-87
2022/01/16 00:14:49;;;;;;;59.13;28.42;;;;;;;-0.68;95.94;100883.69;4998879;28;20038;-89
2022/01/16 00:17:21;;;;;;;51.97;27.23;;;;;;;-0.73;95.55;100866.59;4998544;28;20049;-88
2022/01/16 00:19:55;;;;;;;56.72;29.10;;;;;;;-0.75;95.95;100841.72;5003463;28;20041;-88
2022/01/16 00:22:36;;;;;;;60.88;29.10;;;;;;;-0.75;95.80;100844.28;5001557;28;20125;-89
2022/01/16 00:25:15;;;;;;;54.30;28.05;;;;;;;-0.80;95.88;100869.25;4986271;28;20026;-87
2022/01/16 00:27:47;;;;;;;53.13;28.40;;;;;;;-0.80;95.75;100854.66;4986154;28;20166;-89
2022/01/16 00:30:13;;;;;;;55.85;29.70;;;;;;;-0.84;96.32;100862.44;4997818;28;20101;-89
2022/01/16 00:32:39;;;;;;;61.38;29.58;;;;;;;-0.83;96.34;100872.69;5006094;28;20069;-89
2022/01/16 00:35:08;;;;;;;65.00;30.55;;;;;;;-0.82;96.36;100868.41;5002751;28;20041;-87
2022/01/16 00:37:36;;;;;;;;;;;;;;;-0.88;96.17;100853.03;5015209;28;20056;-87
2022/01/16 00:40:12;;;;;;;49.28;27.23;;;;;;;-0.90;95.76;100832.44;5027712;28;20263;-85
2022/01/16 00:42:37;;;;;;;61.15;28.17;;;;;;;-0.95;95.57;100830.81;5028409;28;20093;-86
2022/01/16 00:45:04;;;;;;;48.97;25.45;;;;;;;-0.99;95.82;100817.13;5023863;28;20102;-87
2022/01/16 00:47:29;;;;;;;53.47;25.73;;;;;;;-1.00;96.12;100811.13;5039149;28;20034;-87
2022/01/16 00:49:55;;;;;;;57.63;27.10;;;;;;;-0.97;96.32;100828.22;5020186;28;20049;-88
2022/01/16 00:52:21;;;;;;;49.92;27.05;;;;;;;-1.00;96.60;100803.41;5023595;28;20175;-87
2022/01/16 00:54:46;;;;;;;52.47;25.92;;;;;;;-1.03;96.48;100823.16;5007525;28;20309;-87
2022/01/16 00:57:12;;;;;;;52.00;24.52;;;;;;;-1.03;96.63;100812.88;5009140;28;20048;-88
2022/01/16 00:59:37;;;;;;;44.63;21.65;;;;;;;-1.02;96.60;100832.59;5024191;28;20030;-88
2022/01/16 01:02:21;;;;;;;53.00;22.38;;;;;;;-0.97;97.48;100821.34;5001377;28;20046;-88
2022/01/16 01:05:36;;;;;;;46.88;21.88;;;;;;;-0.87;96.89;100840.13;5006353;28;20041;-87
2022/01/16 01:08:17;;;;;;;42.17;20.27;;;;;;;-0.89;96.19;100807.53;4995771;28;20435;-88
2022/01/16 01:14:08;;;;;;;42.28;19.83;;;;;;;-0.92;96.17;100802.47;4987403;28;20045;-88
2022/01/16 01:16:59;;;;;;;46.90;20.80;;;;;;;-0.95;96.10;100798.19;4996603;28;20112;-89
2022/01/16 01:19:34;;;;;;;39.15;18.88;;;;;;;-1.01;96.26;100799.09;4985826;28;20034;-89
2022/01/16 01:22:33;;;;;;;;;;;;;;;;;;;;;
2022/01/16 01:25:08;;;;;;;43.40;19.17;;;;;;;-1.04;96.34;100813.72;5008354;28;20105;-88
2022/01/16 01:27:51;;;;;;;36.10;17.38;;;;;;;-1.02;96.20;100819.72;4999584;28;20077;-86
2022/01/16 01:30:24;;;;;;;45.90;17.98;;;;;;;-1.03;96.14;100806.00;4977247;28;20038;-86
2022/01/16 01:32:56;;;;;;;35.97;17.83;;;;;;;-1.07;96.25;100790.63;4981668;28;20042;-88
2022/01/16 01:35:23;;;;;;;33.88;17.10;;;;;;;-1.13;96.24;100795.81;4988299;28;20038;-87
2022/01/16 01:37:53;;;;;;;35.95;18.38;;;;;;;-1.16;96.32;100741.81;5017356;28;20099;-87
2022/01/16 01:40:51;;;;;;;;;;;;;;;;;;;;;
2022/01/16 01:52:00;;;;;;;32.20;16.95;;;;;;;-1.14;96.43;100730.66;5003881;28;20068;-89
2022/01/16 01:54:28;;;;;;;41.25;18.23;;;;;;;-1.13;96.56;100724.63;5018783;28;20033;-88
2022/01/16 01:56:55;;;;;;;35.28;17.23;;;;;;;-1.13;96.79;100732.34;4995191;28;20041;-89
2022/01/16 01:59:22;;;;;;;32.53;15.93;;;;;;;-1.14;96.39;100751.22;5001462;28;20026;-87
2022/01/16 02:01:48;;;;;;;34.75;15.77;;;;;;;-1.17;96.42;100735.81;5013667;28;20034;-88
2022/01/16 02:04:13;;;;;;;31.73;16.52;;;;;;;-1.18;96.49;100726.41;5013148;28;20048;-87
2022/01/16 02:06:50;;;;;;;34.70;16.42;;;;;;;-1.17;96.73;100719.53;4999452;28;20131;-87
2022/01/16 02:09:16;;;;;;;32.78;16.38;;;;;;;-1.19;96.42;100729.84;5000706;28;20073;-88
2022/01/16 02:11:51;;;;;;;31.75;15.50;;;;;;;-1.16;96.46;100713.53;5003329;28;20033;-87
2022/01/16 02:36:04;;;;;;;26.58;14.55;;;;;;;-1.26;96.36;100703.34;4910934;29;20090;-88
2022/01/16 02:38:50;;;;;;;28.85;14.48;;;;;;;-1.22;96.62;100714.47;4931083;29;20036;-87
2022/01/16 02:47:33;;;;;;;28.90;15.07;;;;;;;-1.13;97.19;100703.19;4876418;29;20045;-86
2022/01/16 02:50:03;;;;;;;25.10;14.68;;;;;;;-1.09;96.95;100677.41;4854227;29;20045;-88
2022/01/16 02:52:39;;;;;;;27.13;15.25;;;;;;;-1.07;97.19;100680.81;4876315;29;20144;-88
2022/01/16 02:55:09;;;;;;;29.88;16.02;;;;;;;-1.02;97.18;100680.75;4850953;29;20047;-89
2022/01/16 02:57:53;;;;;;;26.60;14.32;;;;;;;-1.02;97.39;100683.31;4860836;29;20041;-86
2022/01/16 03:00:42;;;;;;;30.25;15.15;;;;;;;-1.01;97.13;100679.88;4862245;29;20035;-87
2022/01/16 03:03:13;;;;;;;26.42;14.80;;;;;;;-1.04;97.19;100678.22;4903152;29;20060;-87
2022/01/16 03:06:03;;;;;;;31.23;15.63;;;;;;;-1.02;97.15;100684.16;4929023;29;20111;-87
2022/01/16 03:09:06;;;;;;;28.40;15.20;;;;;;;-1.04;96.99;100675.63;4899180;29;20092;-87
2022/01/16 03:11:51;;;;;;;39.45;15.55;;;;;;;-1.01;97.45;100669.56;4921652;29;20036;-86
2022/01/16 03:15:07;;;;;;;;;;;;;;;;;;;;;
2022/01/16 03:21:52;;;;;;;30.85;15.80;;;;;;;-1.01;97.23;100660.13;4926902;29;20101;-87
2022/01/16 03:23:26;;;;;;;31.75;15.43;;;;;;;-1.02;97.30;100655.84;4965824;28;20082;-87
2022/01/16 03:26:03;;;;;;;31.08;15.82;;;;;;;-1.07;97.10;100649.94;5021397;28;20061;-86
2022/01/16 03:28:48;;;;;;;29.63;15.80;;;;;;;-1.07;97.18;100633.66;4989500;28;20038;-86
2022/01/16 03:31:17;;;;;;;32.97;15.90;;;;;;;-1.11;97.69;100616.53;4994742;28;20050;-88
2022/01/16 03:33:54;;;;;;;30.80;16.90;;;;;;;-1.14;97.42;100614.88;5012099;28;20118;-88
2022/01/16 03:36:36;;;;;;;28.50;14.82;;;;;;;-1.14;97.63;100608.88;4997264;28;20529;-87
2022/01/16 03:39:10;;;;;;;26.42;15.85;;;;;;;-1.19;97.57;100601.19;5007744;28;20030;-88
2022/01/16 03:42:00;;;;;;;28.83;16.42;;;;;;;-1.19;97.68;100585.75;5022586;28;20045;-86
2022/01/16 03:44:32;;;;;;;36.60;16.08;;;;;;;-1.19;97.89;100592.63;5010604;28;20065;-89
2022/01/16 03:47:10;;;;;;;27.25;16.15;;;;;;;-1.20;98.04;100593.50;5004783;28;20021;-88
2022/01/16 03:49:47;;;;;;;30.85;15.20;;;;;;;-1.25;98.00;100586.72;5000611;28;20527;-89
2022/01/16 03:52:31;;;;;;;29.85;16.77;;;;;;;-1.28;98.00;100588.47;5002500;28;20037;-87
2022/01/16 03:54:59;;;;;;;33.38;16.98;;;;;;;-1.30;98.44;100575.66;5028247;28;20584;-88
2022/01/16 03:57:30;;;;;;;31.05;16.48;;;;;;;-1.34;98.19;100565.41;5004843;28;20056;-87
2022/01/16 03:59:58;;;;;;;26.08;14.90;;;;;;;-1.37;98.21;100565.44;4991444;28;20049;-88
2022/01/16 04:02:25;;;;;;;28.85;15.65;;;;;;;-1.39;98.27;100562.06;4998433;28;20045;-89
2022/01/16 04:04:56;;;;;;;33.78;16.13;;;;;;;-1.43;98.00;100570.69;4999883;28;20387;-88
2022/01/16 04:07:31;;;;;;;32.42;16.90;;;;;;;-1.47;98.32;100575.00;5001976;28;20038;-88
2022/01/16 04:10:14;;;;;;;29.50;15.60;;;;;;;-1.50;98.51;100569.91;4989875;28;20103;-88
2022/01/16 04:12:40;;;;;;;27.42;15.35;;;;;;;-1.51;98.73;100571.63;4998100;28;20087;-88
2022/01/16 04:17:56;;;;;;;31.38;16.58;;;;;;;-1.51;98.95;100557.94;5015782;28;20392;-88
2022/01/16 04:21:06;;;;;;;32.28;16.20;;;;;;;-1.49;98.95;100569.88;4984199;28;20434;-88
2022/01/16 04:23:38;;;;;;;30.85;15.75;;;;;;;-1.49;98.87;100561.31;4978886;28;20066;-89
2022/01/16 04:29:58;;;;;;;29.75;15.30;;;;;;;-1.44;98.48;100559.56;4931279;29;20042;-88
2022/01/16 04:32:45;;;;;;;29.08;15.35;;;;;;;-1.42;98.27;100564.66;4922279;29;20056;-87
2022/01/16 04:35:10;;;;;;;28.95;15.38;;;;;;;-1.40;97.90;100563.78;4911455;29;20043;-87
2022/01/16 04:37:55;;;;;;;32.67;16.00;;;;;;;-1.38;97.62;100571.47;4908611;29;20039;-89
2022/01/16 04:44:24;;;;;;;37.00;16.17;;;;;;;-1.36;97.36;100572.31;4893353;29;20421;-87
2022/01/16 04:50:25;;;;;;;37.42;15.73;;;;;;;-1.35;96.89;100566.28;4879857;29;20508;-88
2022/01/16 04:53:05;;;;;;;35.58;16.58;;;;;;;-1.34;96.44;100561.09;4890388;29;20040;-88
2022/01/16 04:55:30;;;;;;;30.30;15.48;;;;;;;-1.33;96.05;100560.25;4880589;29;20072;-87
2022/01/16 04:57:59;;;;;;;34.63;16.08;;;;;;;-1.32;95.99;100553.38;4880749;29;20115;-87
2022/01/16 05:00:47;;;;;;;31.73;16.25;;;;;;;-1.33;96.04;100551.69;4897093;29;20490;-88
2022/01/16 05:03:15;;;;;;;32.92;16.08;;;;;;;-1.34;96.04;100540.53;4853983;29;20072;-87
2022/01/16 05:05:45;;;;;;;32.42;16.13;;;;;;;-1.36;96.23;100533.72;4905281;29;20500;-88
2022/01/16 05:08:11;;;;;;;35.58;16.80;;;;;;;-1.36;96.69;100534.56;4929993;28;20047;-88
2022/01/16 05:10:38;;;;;;;32.75;16.35;;;;;;;-1.39;96.84;100537.19;4937704;29;20046;-88
2022/01/16 05:18:42;;;;;;;76.90;19.48;;;;;;;-1.37;98.48;100530.31;4918274;29;20047;-87
2022/01/16 05:21:11;;;;;;;68.55;22.05;;;;;;;-1.38;98.95;100520.03;4934532;29;20099;-87
2022/01/16 05:23:37;;;;;;;;;;;;;;;-1.43;98.90;100520.09;4912818;29;20036;-87
2022/01/16 05:26:29;;;;;;;68.00;19.15;;;;;;;-1.37;99.60;100506.28;4919513;29;19933;-87
2022/01/16 05:29:11;;;;;;;64.90;21.00;;;;;;;-1.35;99.56;100507.97;4937401;28;20374;-89
2022/01/16 05:31:53;;;;;;;83.32;22.42;;;;;;;-1.33;99.65;100503.66;4903158;29;20043;-88
2022/01/16 05:34:37;;;;;;;;;;;;;;;;;;;;;
2022/01/16 05:37:16;;;;;;;;;;;;;;;;;;;;;
2022/01/16 05:39:46;;;;;;;;;;;;;;;-1.23;100.00;100497.47;5017847;28;20526;-88
2022/01/16 05:42:12;;;;;;;60.13;21.83;;;;;;;-1.18;99.75;100501.75;5024736;28;20008;-88
2022/01/16 05:44:41;;;;;;;63.53;23.60;;;;;;;-1.15;100.00;100504.25;4995440;28;20045;-89
2022/01/16 05:47:12;;;;;;;51.65;23.60;;;;;;;-1.11;99.92;100493.91;5013826;28;20561;-87
2022/01/16 05:49:42;;;;;;;53.90;23.55;;;;;;;-1.06;99.55;100506.69;4996460;28;20069;-87
2022/01/16 05:52:08;;;;;;;49.60;24.52;;;;;;;-1.05;99.60;100509.22;5014096;28;20066;-88
2022/01/16 05:54:47;;;;;;;52.00;24.33;;;;;;;-1.01;99.32;100505.72;4997197;28;20037;-88
2022/01/16 05:57:27;;;;;;;44.33;22.45;;;;;;;-0.97;99.14;100506.53;4972110;28;20080;-89
2022/01/16 06:00:17;;;;;;;45.97;24.10;;;;;;;-0.90;99.29;100504.72;4989666;28;20042;-85
2022/01/16 06:02:45;;;;;;;44.05;21.25;;;;;;;-0.86;98.74;100502.06;4991031;28;20486;-87
2022/01/16 06:05:12;;;;;;;43.55;20.23;;;;;;;-0.83;98.30;100508.88;5032313;28;20065;-88
2022/01/16 06:07:45;;;;;;;42.60;20.95;;;;;;;-0.76;98.60;100503.59;5021049;28;20053;-88
2022/01/16 06:13:20;;;;;;;40.60;19.10;;;;;;;-0.68;98.22;100505.19;5014206;28;20072;-86
2022/01/16 06:16:16;;;;;;;42.42;21.10;;;;;;;-0.67;98.43;100499.16;5019097;28;20040;-88
2022/01/16 06:19:09;;;;;;;;;;;;;;;;;;;;;
2022/01/16 06:21:37;;;;;;;42.38;21.02;;;;;;;-0.59;98.72;100492.19;5013069;28;20160;-88
2022/01/16 06:24:06;;;;;;;40.80;20.63;;;;;;;-0.54;98.45;100486.03;5012823;28;20030;-88
2022/01/16 06:29:32;;;;;;;45.08;21.35;;;;;;;-0.44;98.51;100478.16;5014740;28;20029;-88
2022/01/16 06:32:06;;;;;;;42.78;21.90;;;;;;;-0.40;98.44;100482.38;5001007;28;20421;-88
2022/01/16 06:34:32;;;;;;;42.00;20.92;;;;;;;-0.36;98.03;100487.44;5001615;28;20037;-87
2022/01/16 06:37:00;;;;;;;44.90;21.67;;;;;;;-0.34;98.24;100482.25;4999524;28;20036;-88
2022/01/16 06:39:29;;;;;;;36.20;19.42;;;;;;;-0.31;97.67;100483.03;5003120;28;20101;-89
2022/01/16 06:41:56;;;;;;;34.60;19.63;;;;;;;-0.27;97.55;100486.41;5006526;28;20041;-89
2022/01/16 06:44:22;;;;;;;37.17;19.90;;;;;;;-0.29;97.04;100485.59;5030389;28;20133;-87
2022/01/16 06:46:47;;;;;;;37.72;19.05;;;;;;;-0.31;96.73;100495.06;4997346;28;20495;-89
2022/01/16 06:49:13;;;;;;;33.03;17.75;;;;;;;-0.29;96.51;100501.06;5010895;28;20052;-87
2022/01/16 06:51:41;;;;;;;32.17;19.15;;;;;;;-0.29;96.25;100501.06;5018723;28;20018;-89
2022/01/16 06:54:07;;;;;;;29.50;17.37;;;;;;;-0.30;96.11;100494.19;4998450;28;20034;-88
2022/01/16 06:56:59;;;;;;;31.80;17.30;;;;;;;-0.33;95.80;100491.69;4999342;28;20037;-88
2022/01/16 06:59:21;;;;;;;29.13;15.85;;;;;;;-0.37;95.37;100483.19;5000235;28;20045;-88
2022/01/16 07:01:47;;;;;;;27.77;16.45;;;;;;;-0.44;95.57;100478.16;5016597;28;20490;-88
2022/01/16 07:04:12;;;;;;;26.05;15.38;;;;;;;-0.50;95.35;100492.00;5016770;28;20038;-89
2022/01/16 07:06:46;;;;;;;30.27;17.23;;;;;;;-0.56;95.43;100492.94;4999405;28;20065;-89
2022/01/16 07:09:12;;;;;;;31.63;17.13;;;;;;;-0.58;95.45;100489.56;5001001;28;20086;-88
2022/01/16 07:11:38;;;;;;;32.65;17.13;;;;;;;-0.62;95.49;100498.22;5016918;28;20054;-89
2022/01/16 07:14:08;;;;;;;24.73;15.00;;;;;;;-0.68;95.11;100500.03;4989233;28;20141;-88
2022/01/16 07:16:50;;;;;;;26.08;15.30;;;;;;;-0.75;94.78;100500.13;5016076;28;20060;-87
2022/01/16 07:19:27;;;;;;;30.95;16.40;;;;;;;-0.54;96.40;100511.81;4998574;28;20152;-87
2022/01/16 07:21:55;;;;;;;29.38;15.25;;;;;;;-0.47;95.10;100512.56;5016017;28;20105;-87
2022/01/16 07:24:39;;;;;;;25.17;14.43;;;;;;;-0.38;95.68;100516.66;4998466;28;20470;-87
2022/01/16 07:27:17;;;;;;;24.25;13.95;;;;;;;-0.38;93.15;100522.66;4998453;28;20279;-87
2022/01/16 07:29:45;;;;;;;21.90;12.95;;;;;;;-0.54;92.92;100531.56;5009794;28;20503;-89
2022/01/16 07:32:12;;;;;;;26.75;13.13;;;;;;;-0.64;92.96;100535.16;4981561;28;20034;-87
2022/01/16 07:34:40;;;;;;;21.38;12.30;;;;;;;-0.69;93.33;100539.56;5016340;28;20129;-88
2022/01/16 07:37:08;;;;;;;22.80;12.52;;;;;;;-0.75;92.82;100532.75;5004133;28;20042;-87
2022/01/16 07:39:34;;;;;;;26.13;12.73;;;;;;;-0.75;92.71;100546.47;5017845;28;20101;-87
2022/01/16 07:41:59;;;;;;;24.38;12.45;;;;;;;-0.70;92.60;100550.69;5000361;28;20090;-89
2022/01/16 07:44:40;;;;;;;21.83;11.48;;;;;;;-0.63;92.13;100552.31;5002969;28;20367;-88
2022/01/16 07:50:46;;;;;;;20.02;11.75;;;;;;;-0.39;91.18;100551.03;4992246;28;20148;-88
2022/01/16 07:53:12;;;;;;;19.20;10.45;;;;;;;-0.30;91.35;100556.03;5015382;28;20060;-89
2022/01/16 07:55:41;;;;;;;18.33;10.82;;;;;;;-0.24;90.98;100553.34;5000606;28;20057;-88
2022/01/16 07:58:06;;;;;;;19.98;11.93;;;;;;;-0.17;91.60;100544.63;5035194;28;20051;-88
2022/01/16 08:00:45;;;;;;;22.45;11.88;;;;;;;-0.11;91.66;100551.38;5035200;28;20474;-87
2022/01/16 08:03:15;;;;;;;23.63;11.93;;;;;;;-0.05;91.87;100546.13;4988197;28;20037;-88
2022/01/16 08:05:48;;;;;;;22.55;11.82;;;;;;;0.04;92.05;100535.63;4998193;28;20062;-89
2022/01/16 08:08:20;;;;;;;21.55;12.35;;;;;;;0.10;92.25;100545.81;5014473;28;20108;-89
2022/01/16 08:10:45;;;;;;;21.17;12.35;;;;;;;0.18;92.17;100554.22;5020656;28;20051;-87
2022/01/16 08:23:02;;;;;;;25.75;14.30;;;;;;;0.47;92.91;100550.22;4944620;29;20038;-88
2022/01/16 08:25:36;;;;;;;26.90;15.13;;;;;;;0.52;93.11;100538.09;4928883;29;20225;-89
2022/01/16 08:31:30;;;;;;;25.90;14.60;;;;;;;0.59;92.63;100544.78;4943358;29;20080;-88
2022/01/16 08:34:18;;;;;;;27.02;13.80;;;;;;;0.62;92.73;100546.47;4911930;29;20054;-89
2022/01/16 08:37:02;;;;;;;23.08;13.75;;;;;;;0.65;93.06;100536.91;4872592;29;20052;-88
2022/01/16 08:39:41;;;;;;;29.42;15.05;;;;;;;0.71;92.72;100530.78;4883916;29;20032;-88
2022/01/16 08:43:09;;;;;;;;;;;;;;;;;;;;;
2022/01/16 08:45:49;;;;;;;26.60;15.30;;;;;;;0.80;92.81;100524.56;4899234;29;20206;-88
2022/01/16 08:48:31;;;;;;;28.77;15.43;;;;;;;0.85;92.96;100530.44;4971231;28;20634;-89
2022/01/16 08:51:18;;;;;;;23.50;13.10;;;;;;;0.90;93.04;100536.38;4956063;28;20427;-89
2022/01/16 08:54:05;;;;;;;27.05;14.60;;;;;;;0.90;92.80;100532.06;4955656;28;20059;-90
2022/01/16 08:57:00;;;;;;;25.98;15.20;;;;;;;0.96;92.67;100536.22;4978219;28;20034;-89
2022/01/16 08:59:48;;;;;;;26.55;15.25;;;;;;;1.01;92.62;100528.38;4963656;28;20043;-89
2022/01/16 09:02:46;;;;;;;29.83;15.02;;;;;;;0.99;92.37;100527.56;4949771;28;20082;-89
2022/01/16 09:05:44;;;;;;;;;;;;;;;;;;;;;
2022/01/16 09:12:05;;;;;;;23.45;13.05;;;;;;;1.10;92.67;100541.91;5004059;28;20118;-89
2022/01/16 09:14:56;;;;;;;25.67;13.82;;;;;;;1.14;92.59;100530.59;5004493;28;20107;-89
2022/01/16 09:17:27;;;;;;;24.95;14.30;;;;;;;1.16;92.44;100538.34;5009800;28;20040;-87
2022/01/16 09:20:02;;;;;;;27.55;14.75;;;;;;;1.20;92.58;100535.63;4997933;28;20076;-88
2022/01/16 09:22:48;;;;;;;23.00;12.77;;;;;;;1.22;92.62;100535.59;4988712;28;20109;-86
2022/01/16 09:25:40;;;;;;;20.95;12.45;;;;;;;1.24;92.93;100535.56;4992872;28;20037;-86
2022/01/16 09:28:15;;;;;;;22.23;11.25;;;;;;;1.28;92.54;100529.44;4989789;28;20030;-85
2022/01/16 09:30:42;;;;;;;21.23;11.75;;;;;;;1.36;92.54;100530.09;5000559;28;20381;-86
2022/01/16 09:33:10;;;;;;;18.60;10.00;;;;;;;1.40;92.35;100540.28;4992491;28;20065;-86
2022/01/16 09:35:55;;;;;;;17.98;10.52;;;;;;;1.41;92.07;100534.25;4995399;28;20088;-87
2022/01/16 09:38:28;;;;;;;18.33;10.90;;;;;;;1.47;92.42;100524.66;5009525;28;20041;-87
2022/01/16 09:41:00;;;;;;;17.45;11.38;;;;;;;1.51;91.72;100534.84;5003766;28;20038;-86
2022/01/16 09:43:54;;;;;;;19.13;11.00;;;;;;;1.54;91.61;100533.94;5002617;28;20455;-86
2022/01/16 09:47:09;;;;;;;18.98;11.02;;;;;;;1.50;91.57;100535.75;5018168;28;20042;-87
2022/01/16 09:49:41;;;;;;;18.70;10.98;;;;;;;1.52;91.46;100549.50;5004801;28;20458;-87
2022/01/16 09:52:27;;;;;;;22.08;12.13;;;;;;;1.49;91.56;100559.91;5005584;28;20043;-88
2022/01/16 09:54:55;;;;;;;19.58;11.50;;;;;;;1.52;91.42;100569.28;4990528;28;20476;-86
2022/01/16 09:57:37;;;;;;;22.73;11.65;;;;;;;1.51;91.68;100573.63;5016539;28;20088;-88
2022/01/16 10:00:32;;;;;;;24.17;13.02;;;;;;;1.51;91.29;100563.28;5020134;28;20029;-89
2022/01/16 10:03:05;;;;;;;25.80;13.25;;;;;;;1.52;91.41;100556.38;4997823;28;20179;-86
2022/01/16 10:08:58;;;;;;;24.83;13.77;;;;;;;1.64;90.72;100569.84;5002033;28;20092;-86
2022/01/16 10:11:48;;;;;;;26.80;15.20;;;;;;;1.64;90.81;100558.66;5008978;28;20101;-85
2022/01/16 10:14:34;;;;;;;28.98;14.30;;;;;;;1.64;90.80;100559.50;5008591;28;20499;-86
2022/01/16 10:17:12;;;;;;;26.10;15.38;;;;;;;1.71;90.68;100560.22;5012433;28;20386;-85
2022/01/16 10:19:59;;;;;;;26.10;14.57;;;;;;;1.66;90.71;100562.88;5015917;28;20481;-86
2022/01/16 10:23:21;;;;;;;25.50;14.85;;;;;;;1.70;90.61;100574.00;4992941;28;20112;-87
2022/01/16 10:25:57;;;;;;;26.95;14.93;;;;;;;1.69;90.79;100572.31;4981164;28;20042;-88
2022/01/16 10:28:28;;;;;;;25.15;14.00;;;;;;;1.66;90.99;100570.63;5007958;28;20045;-87
2022/01/16 10:30:59;;;;;;;36.38;14.95;;;;;;;1.63;90.84;100567.28;4988560;28;20037;-87
2022/01/16 10:33:33;;;;;;;29.65;15.30;;;;;;;1.63;90.68;100565.56;5013472;28;20033;-87
2022/01/16 10:36:08;;;;;;;27.90;14.73;;;;;;;1.62;90.64;100561.28;4996100;28;20049;-88
2022/01/16 10:38:36;;;;;;;34.25;16.90;;;;;;;1.62;90.60;100555.25;4995694;28;20494;-87
2022/01/16 10:41:21;;;;;;;29.52;16.15;;;;;;;1.67;90.96;100549.09;5013475;28;20050;-86
2022/01/16 10:43:49;;;;;;;30.58;17.63;;;;;;;1.68;90.83;100561.13;5001915;28;20040;-87
2022/01/16 10:46:35;;;;;;;;;;;;;;;;;;;;;
2022/01/16 10:49:14;;;;;;;33.67;17.38;;;;;;;1.90;90.68;100560.56;5013867;28;20074;-87
2022/01/16 10:52:10;;;;;;;;;;;;;;;;;;;;;
2022/01/16 10:54:41;;;;;;;31.08;18.35;;;;;;;1.77;90.34;100564.34;5012774;28;20245;-88
2022/01/16 10:57:30;;;;;;;33.92;18.27;;;;;;;1.80;90.35;100551.34;5003297;28;20046;-85
2022/01/16 11:01:16;;;;;;;;;;;;;;;;;;;;;
2022/01/16 11:03:59;;;;;;;32.70;18.85;;;;;;;1.83;90.39;100548.69;4884870;29;21443;-86
2022/01/16 11:06:30;;;;;;;33.40;18.73;;;;;;;1.85;89.95;100562.41;4879685;29;20032;-87
2022/01/16 11:09:01;;;;;;;33.08;18.67;;;;;;;1.88;89.83;100552.00;4891607;29;20475;-89
2022/01/16 11:11:33;;;;;;;29.95;16.42;;;;;;;1.91;89.55;100554.50;4881428;29;20052;-86
2022/01/16 11:14:35;;;;;;;27.95;16.45;;;;;;;1.92;89.19;100549.25;4879955;29;20073;-87
2022/01/16 11:17:01;;;;;;;31.65;16.63;;;;;;;1.96;89.11;100555.19;4882125;29;20033;-85
2022/01/16 11:19:35;;;;;;;33.63;18.60;;;;;;;1.98;89.02;100557.78;4870867;29;20062;-86
2022/01/16 11:22:04;;;;;;;32.20;16.90;;;;;;;2.02;88.61;100560.22;4885527;29;20040;-87
2022/01/16 11:24:46;;;;;;;35.05;17.30;;;;;;;2.06;89.23;100566.16;4877396;29;20021;-85
2022/01/16 11:27:14;;;;;;;33.92;16.77;;;;;;;2.05;88.13;100570.50;4880315;29;20040;-86
2022/01/16 11:29:42;;;;;;;28.23;16.60;;;;;;;2.06;88.35;100572.19;4895213;29;20037;-87
2022/01/16 11:32:50;;;;;;;30.55;16.80;;;;;;;2.05;88.24;100570.50;4868594;29;20132;-88
2022/01/16 11:35:20;;;;;;;;;;;;;;;2.08;88.22;100579.91;4928747;29;20098;-87
2022/01/16 11:38:00;;;;;;;26.55;15.23;;;;;;;2.05;88.17;100582.56;4936302;29;19914;-86
2022/01/16 11:40:46;;;;;;;30.50;16.45;;;;;;;2.04;88.17;100578.28;5017541;28;20078;-86
2022/01/16 11:43:18;;;;;;;25.95;15.07;;;;;;;1.98;88.15;100601.72;5016021;28;20081;-87
2022/01/16 11:45:45;;;;;;;30.33;17.20;;;;;;;1.99;88.51;100591.34;5011626;28;20032;-87
2022/01/16 11:48:50;;;;;;;;;;;;;;;;;;;;;
2022/01/16 11:51:39;;;;;;;27.55;15.70;;;;;;;2.00;88.53;100608.53;5008695;28;21897;-89
2022/01/16 11:54:15;;;;;;;29.00;16.13;;;;;;;2.01;88.44;100606.81;5006351;28;20038;-87
2022/01/16 11:57:07;;;;;;;26.58;15.57;;;;;;;2.02;88.60;100605.94;5000004;28;20035;-89
2022/01/16 11:59:42;;;;;;;29.48;16.23;;;;;;;1.98;88.22;100620.69;4992877;28;20041;-87
2022/01/16 12:02:07;;;;;;;26.45;14.50;;;;;;;1.98;88.22;100612.06;5010173;28;20171;-87
2022/01/16 12:04:41;;;;;;;27.52;15.55;;;;;;;2.07;88.35;100622.16;5014276;28;20026;-88
2022/01/16 12:07:15;;;;;;;29.20;15.75;;;;;;;2.06;87.93;100618.72;5017971;28;20717;-87
2022/01/16 12:12:41;;;;;;;25.85;15.65;;;;;;;2.08;87.87;100616.13;4964471;28;20537;-87
2022/01/16 12:15:27;;;;;;;29.55;16.00;;;;;;;2.16;87.66;100615.00;5006875;28;20033;-87
2022/01/16 12:18:37;;;;;;;26.63;15.52;;;;;;;2.16;87.32;100615.00;5014229;28;20063;-87
2022/01/16 12:21:36;;;;;;;26.95;13.05;;;;;;;2.10;87.81;100612.59;4999121;28;20502;-87
2022/01/16 12:24:09;;;;;;;24.27;13.02;;;;;;;2.11;87.69;100621.19;5014434;28;20037;-89
2022/01/16 12:26:44;;;;;;;27.58;14.20;;;;;;;2.14;87.67;100608.19;4997116;28;20038;-88
2022/01/16 12:29:21;;;;;;;26.42;13.88;;;;;;;2.13;87.96;100609.06;5004530;28;20512;-88
2022/01/16 12:31:51;;;;;;;31.02;15.20;;;;;;;2.15;87.67;100608.16;5013974;28;20026;-87
2022/01/16 12:34:50;;;;;;;23.85;13.90;;;;;;;2.12;88.04;100603.06;5015832;28;20409;-88
2022/01/16 12:37:44;;;;;;;18.73;10.48;;;;;;;2.12;88.17;100602.22;5007728;28;20037;-88
2022/01/16 12:40:18;;;;;;;23.13;11.85;;;;;;;2.14;87.92;100597.81;4988948;28;20441;-87
2022/01/16 12:42:59;;;;;;;23.17;12.32;;;;;;;2.10;88.21;100612.59;5000161;28;20022;-88
2022/01/16 12:45:25;;;;;;;23.73;12.57;;;;;;;2.15;88.22;100596.94;5016706;28;20042;-88
2022/01/16 12:48:00;;;;;;;19.63;11.68;;;;;;;2.14;88.15;100606.44;5010731;28;20034;-88
2022/01/16 12:50:33;;;;;;;20.42;10.77;;;;;;;2.10;87.94;100599.66;5023928;28;20030;-88
2022/01/16 12:53:07;;;;;;;23.70;11.65;;;;;;;2.11;88.38;100593.59;5013005;28;20051;-88
2022/01/16 12:55:34;;;;;;;23.60;11.90;;;;;;;2.10;88.41;100598.81;4996484;28;20094;-88
2022/01/16 12:58:27;;;;;;;20.95;11.18;;;;;;;2.12;88.70;100591.88;5010939;28;20168;-87
2022/01/16 13:00:59;;;;;;;21.05;11.75;;;;;;;2.11;88.35;100596.19;4992692;28;20128;-88
2022/01/16 13:03:29;;;;;;;27.48;12.88;;;;;;;2.17;88.09;100602.94;5014619;28;20025;-88
2022/01/16 13:06:24;;;;;;;21.13;10.98;;;;;;;2.20;88.07;100596.81;5017201;28;20322;-88
2022/01/16 13:08:59;;;;;;;20.88;10.88;;;;;;;2.24;88.01;100591.53;4996859;28;20041;-86
2022/01/16 13:11:28;;;;;;;25.40;12.02;;;;;;;2.23;87.82;100600.19;4998213;28;20042;-88
2022/01/16 13:13:58;;;;;;;21.08;10.85;;;;;;;2.20;87.63;100597.66;5004508;28;20040;-86
2022/01/16 13:16:36;;;;;;;23.48;12.10;;;;;;;2.24;87.87;100598.44;4999536;28;20049;-88
2022/01/16 13:19:24;;;;;;;22.45;10.23;;;;;;;2.23;87.50;100592.41;4995866;28;20034;-87
2022/01/16 13:22:15;;;;;;;23.63;11.25;;;;;;;2.22;88.02;100592.44;4997361;28;20060;-87
2022/01/16 13:24:58;;;;;;;21.13;10.90;;;;;;;2.24;87.55;100591.53;5008949;28;20119;-87
2022/01/16 13:27:42;;;;;;;20.08;10.65;;;;;;;2.25;87.53;100582.84;5011902;28;20038;-85
2022/01/16 13:30:17;;;;;;;23.02;12.25;;;;;;;2.26;87.85;100581.13;5006242;28;20123;-88
2022/01/16 13:33:01;;;;;;;21.90;10.80;;;;;;;2.25;87.62;100576.84;4997704;28;20049;-86
2022/01/16 13:35:30;;;;;;;20.88;10.65;;;;;;;2.32;87.79;100580.94;4992010;28;20522;-87
2022/01/16 13:38:07;;;;;;;19.85;11.07;;;;;;;2.41;87.08;100573.78;4995201;28;20166;-86
2022/01/16 13:40:36;;;;;;;22.27;11.70;;;;;;;2.46;86.85;100571.06;5013198;28;20164;-87
2022/01/16 13:43:10;;;;;;;21.70;10.88;;;;;;;2.48;86.60;100583.94;4995506;28;20030;-86
2022/01/16 13:45:41;;;;;;;19.73;10.00;;;;;;;2.45;86.62;100584.91;4988073;28;20038;-85
2022/01/16 13:48:08;;;;;;;19.05;11.48;;;;;;;2.46;86.72;100584.00;4993676;28;20040;-87
2022/01/16 13:50:54;;;;;;;22.75;11.57;;;;;;;2.51;86.83;100583.88;4996538;28;20503;-86
2022/01/16 13:53:44;;;;;;;21.30;10.73;;;;;;;2.47;86.35;100577.09;5007480;28;20062;-87
2022/01/16 13:56:28;;;;;;;18.23;10.20;;;;;;;2.43;86.94;100586.66;4995822;28;20038;-86